createdAt,value
2022-10-18T00:00:11.866Z,14.70
2022-10-18T00:02:39.421Z,14.81
2022-10-18T00:05:07.319Z,14.78
2022-10-18T00:07:34.875Z,14.82
2022-10-18T00:10:05.041Z,14.77
2022-10-18T00:12:34.110Z,14.87
2022-10-18T00:15:01.718Z,14.84
2022-10-18T00:17:29.624Z,14.78
2022-10-18T00:19:57.557Z,14.80
2022-10-18T00:22:25.405Z,14.75
2022-10-18T00:24:53.220Z,14.75
2022-10-18T00:27:22.093Z,14.67
2022-10-18T00:29:53.223Z,14.59
2022-10-18T00:32:20.999Z,14.57
2022-10-18T00:34:48.732Z,14.53
2022-10-18T00:37:16.665Z,14.49
2022-10-18T00:39:44.318Z,14.43
2022-10-18T00:42:13.044Z,14.67
2022-10-18T00:45:06.026Z,14.75
2022-10-18T00:47:34.675Z,14.51
2022-10-18T00:50:05.770Z,14.36
2022-10-18T00:52:37.628Z,14.44
2022-10-18T00:55:06.599Z,14.42
2022-10-18T00:57:34.769Z,14.37
2022-10-18T01:00:07.777Z,14.32
2022-10-18T01:02:35.299Z,14.41
2022-10-18T01:05:02.840Z,14.47
2022-10-18T01:07:51.671Z,14.58
2022-10-18T01:10:30.528Z,14.48
2022-10-18T01:13:11.182Z,14.41
2022-10-18T01:15:59.265Z,14.44
2022-10-18T01:18:38.440Z,14.38
2022-10-18T01:21:16.089Z,14.41
2022-10-18T01:24:08.760Z,14.47
2022-10-18T01:26:55.442Z,14.26
2022-10-18T01:29:33.924Z,14.20
2022-10-18T01:32:05.659Z,14.11
2022-10-18T01:34:37.101Z,14.20
2022-10-18T01:37:09.417Z,14.23
2022-10-18T01:39:41.377Z,14.27
2022-10-18T01:42:13.220Z,14.23
2022-10-18T01:44:42.578Z,14.22
2022-10-18T01:47:14.237Z,14.32
2022-10-18T01:49:41.841Z,14.47
2022-10-18T01:52:11.115Z,14.63
2022-10-18T01:54:41.713Z,14.68
2022-10-18T01:57:18.785Z,14.89
2022-10-18T01:59:57.252Z,14.89
2022-10-18T02:02:39.923Z,15.03
2022-10-18T02:05:15.409Z,15.14
2022-10-18T02:07:55.323Z,15.22
2022-10-18T02:10:37.232Z,15.31
2022-10-18T02:13:04.863Z,15.36
2022-10-18T02:15:35.714Z,15.41
2022-10-18T02:18:09.295Z,15.44
2022-10-18T02:20:39.027Z,15.37
2022-10-18T02:23:09.584Z,15.30
2022-10-18T02:25:37.939Z,15.26
2022-10-18T02:28:06.009Z,15.23
2022-10-18T02:30:41.935Z,15.18
2022-10-18T02:33:16.078Z,15.13
2022-10-18T02:35:48.515Z,14.96
2022-10-18T02:38:18.610Z,14.75
2022-10-18T02:40:46.130Z,14.59
2022-10-18T02:43:15.207Z,14.66
2022-10-18T02:45:42.842Z,14.58
2022-10-18T02:48:11.857Z,14.55
2022-10-18T02:50:39.372Z,14.55
2022-10-18T02:53:07.333Z,14.51
2022-10-18T02:55:34.827Z,14.29
2022-10-18T02:58:02.339Z,14.27
2022-10-18T03:00:29.833Z,14.36
2022-10-18T03:02:57.340Z,14.36
2022-10-18T03:05:26.215Z,14.31
2022-10-18T03:07:53.850Z,14.24
2022-10-18T03:10:21.356Z,14.06
2022-10-18T03:12:48.890Z,14.17
2022-10-18T03:15:16.435Z,14.28
2022-10-18T03:17:43.919Z,14.34
2022-10-18T03:20:12.431Z,14.29
2022-10-18T03:22:41.313Z,14.19
2022-10-18T03:25:09.196Z,14.15
2022-10-18T03:27:36.675Z,14.19
2022-10-18T03:30:05.692Z,14.10
2022-10-18T03:32:33.473Z,14.22
2022-10-18T03:35:01.276Z,14.28
2022-10-18T03:37:28.826Z,14.07
2022-10-18T03:39:57.704Z,14.02
2022-10-18T03:42:25.308Z,14.16
2022-10-18T03:44:52.835Z,14.30
2022-10-18T03:47:20.407Z,14.40
2022-10-18T03:49:49.156Z,14.50
2022-10-18T03:52:17.595Z,14.52
2022-10-18T03:54:45.086Z,14.59
2022-10-18T03:57:13.977Z,14.64
2022-10-18T03:59:41.535Z,14.67
2022-10-18T04:02:09.074Z,14.73
2022-10-18T04:04:36.596Z,14.76
2022-10-18T04:07:04.151Z,14.82
2022-10-18T04:09:31.750Z,14.87
2022-10-18T04:11:59.280Z,14.96
2022-10-18T04:14:28.294Z,15.09
2022-10-18T04:16:55.804Z,15.20
2022-10-18T04:19:23.289Z,15.23
2022-10-18T04:21:50.822Z,15.29
2022-10-18T04:24:18.600Z,15.33
2022-10-18T04:26:46.134Z,15.25
2022-10-18T04:29:13.684Z,15.26
2022-10-18T04:31:42.503Z,15.38
2022-10-18T04:34:10.543Z,15.49
2022-10-18T04:36:38.043Z,15.48
2022-10-18T04:39:05.560Z,15.40
2022-10-18T04:41:33.062Z,15.35
2022-10-18T04:44:00.584Z,15.37
2022-10-18T04:46:28.074Z,15.48
2022-10-18T04:48:56.953Z,15.60
2022-10-18T04:51:24.478Z,15.65
2022-10-18T04:53:51.949Z,15.59
2022-10-18T04:56:19.459Z,15.45
2022-10-18T04:58:47.137Z,15.44
2022-10-18T05:01:14.683Z,15.42
2022-10-18T05:03:42.228Z,15.36
2022-10-18T05:06:11.108Z,15.31
2022-10-18T05:08:38.688Z,15.29
2022-10-18T05:11:06.498Z,15.06
2022-10-18T05:13:34.127Z,15.07
2022-10-18T05:16:02.484Z,15.00
2022-10-18T05:18:29.992Z,14.90
2022-10-18T05:20:58.061Z,15.06
2022-10-18T05:23:27.006Z,15.13
2022-10-18T05:25:55.031Z,14.96
2022-10-18T05:28:41.022Z,15.05
2022-10-18T05:31:11.520Z,15.21
2022-10-18T05:33:39.348Z,15.12
2022-10-18T05:36:07.430Z,15.10
2022-10-18T05:38:39.875Z,15.12
2022-10-18T05:41:07.393Z,15.02
2022-10-18T05:43:34.935Z,14.99
2022-10-18T05:46:02.569Z,15.02
2022-10-18T05:48:30.076Z,15.29
2022-10-18T05:50:58.965Z,15.51
2022-10-18T05:53:41.927Z,15.71
2022-10-18T05:56:12.299Z,15.93
2022-10-18T05:58:40.740Z,15.93
2022-10-18T06:01:09.131Z,15.95
2022-10-18T06:03:37.519Z,15.90
2022-10-18T06:06:07.460Z,16.04
2022-10-18T06:08:35.892Z,16.15
2022-10-18T06:11:07.932Z,16.21
2022-10-18T06:13:40.939Z,16.24
2022-10-18T06:16:08.937Z,15.89
2022-10-18T06:18:36.458Z,15.73
2022-10-18T06:21:03.994Z,15.78
2022-10-18T06:23:31.711Z,14.61
2022-10-18T06:26:00.415Z,14.85
2022-10-18T06:28:28.720Z,15.63
2022-10-18T06:30:58.592Z,15.88
2022-10-18T06:33:26.829Z,15.77
2022-10-18T06:35:58.918Z,16.10
2022-10-18T06:38:27.161Z,16.25
2022-10-18T06:40:54.716Z,16.38
2022-10-18T06:43:22.814Z,16.50
2022-10-18T06:45:50.777Z,16.43
2022-10-18T06:50:54.770Z,16.49
2022-10-18T06:53:22.474Z,16.65
2022-10-18T06:55:50.071Z,16.71
2022-10-18T06:58:17.687Z,16.64
2022-10-18T07:00:46.902Z,16.67
2022-10-18T07:03:14.422Z,16.50
2022-10-18T07:05:43.339Z,16.52
2022-10-18T07:08:10.914Z,16.54
2022-10-18T07:10:38.426Z,16.09
2022-10-18T07:13:30.757Z,16.19
2022-10-18T07:16:05.580Z,15.93
2022-10-18T07:18:34.552Z,16.06
2022-10-18T07:21:05.041Z,16.26
2022-10-18T07:23:33.837Z,16.56
2022-10-18T07:26:01.855Z,16.44
2022-10-18T07:28:29.467Z,16.54
2022-10-18T07:30:58.158Z,16.76
2022-10-18T07:33:30.309Z,16.92
2022-10-18T07:36:01.963Z,17.12
2022-10-18T07:38:30.866Z,17.02
2022-10-18T07:40:58.880Z,17.05
2022-10-18T07:43:26.631Z,17.30
2022-10-18T07:45:54.286Z,17.49
2022-10-18T07:48:22.011Z,17.45
2022-10-18T07:50:49.548Z,17.46
2022-10-18T07:53:17.117Z,17.61
2022-10-18T07:55:46.155Z,17.82
2022-10-18T07:58:13.732Z,18.18
2022-10-18T08:00:41.508Z,18.33
2022-10-18T08:03:09.486Z,18.69
2022-10-18T08:05:37.027Z,19.12
2022-10-18T08:08:07.892Z,19.35
2022-10-18T08:10:36.241Z,19.36
2022-10-18T08:13:05.136Z,19.40
2022-10-18T08:15:32.631Z,19.46
2022-10-18T08:18:00.184Z,19.53
2022-10-18T08:20:30.951Z,19.16
2022-10-18T08:23:00.284Z,18.74
2022-10-18T08:25:28.666Z,18.76
2022-10-18T08:27:56.288Z,18.78
2022-10-18T08:30:25.268Z,18.68
2022-10-18T08:32:52.796Z,18.50
2022-10-18T08:35:20.325Z,18.65
2022-10-18T08:37:48.446Z,18.60
2022-10-18T08:40:16.780Z,18.57
2022-10-18T08:43:01.467Z,18.26
2022-10-18T08:45:41.827Z,18.03
2022-10-18T08:48:21.699Z,18.06
2022-10-18T08:50:50.672Z,18.74
2022-10-18T08:53:23.816Z,18.90
2022-10-18T08:55:55.393Z,18.93
2022-10-18T08:58:26.675Z,19.23
2022-10-18T09:01:03.815Z,19.33
2022-10-18T09:03:49.132Z,19.38
2022-10-18T09:06:26.522Z,19.24
2022-10-18T09:09:18.032Z,19.16
2022-10-18T09:12:01.915Z,18.80
2022-10-18T09:14:45.558Z,18.66
2022-10-18T09:17:25.092Z,18.75
2022-10-18T09:20:09.302Z,19.29
2022-10-18T09:22:49.983Z,19.97
2022-10-18T09:25:20.475Z,20.47
2022-10-18T09:27:56.812Z,20.03
2022-10-18T09:30:33.691Z,20.36
2022-10-18T09:33:10.909Z,20.38
2022-10-18T09:35:44.457Z,20.48
2022-10-18T09:38:16.870Z,21.24
2022-10-18T09:40:52.173Z,22.35
2022-10-18T09:43:23.860Z,23.28
2022-10-18T09:45:54.106Z,24.73
2022-10-18T09:48:28.079Z,25.27
2022-10-18T09:51:01.449Z,25.51
2022-10-18T09:53:37.566Z,25.89
2022-10-18T09:56:07.301Z,26.52
2022-10-18T09:58:42.507Z,26.87
2022-10-18T10:01:12.312Z,26.59
2022-10-18T10:03:42.925Z,26.67
2022-10-18T10:06:26.431Z,26.72
2022-10-18T10:09:01.926Z,27.50
2022-10-18T10:11:33.061Z,27.46
2022-10-18T10:14:10.589Z,27.85
2022-10-18T10:16:45.568Z,28.20
2022-10-18T10:19:24.497Z,27.78
2022-10-18T10:21:56.887Z,27.36
2022-10-18T10:24:31.133Z,26.93
2022-10-18T10:27:08.012Z,26.58
2022-10-18T10:29:51.436Z,26.13
2022-10-18T10:32:21.759Z,26.02
2022-10-18T10:34:51.197Z,25.42
2022-10-18T10:37:36.896Z,25.39
2022-10-18T10:40:18.441Z,25.74
2022-10-18T10:43:33.115Z,25.36
2022-10-18T10:46:04.980Z,25.11
2022-10-18T10:48:35.341Z,25.52
2022-10-18T10:51:07.948Z,26.52
2022-10-18T10:53:45.260Z,27.58
2022-10-18T10:56:22.142Z,27.82
2022-10-18T10:58:50.082Z,27.08
2022-10-18T11:01:20.259Z,26.87
2022-10-18T11:03:49.530Z,27.03
2022-10-18T11:06:44.396Z,26.90
2022-10-18T11:09:22.987Z,27.57
2022-10-18T11:12:00.528Z,27.76
2022-10-18T11:14:31.791Z,28.20
2022-10-18T11:17:08.070Z,28.39
2022-10-18T11:19:43.694Z,28.97
2022-10-18T11:22:17.452Z,28.56
2022-10-18T11:24:45.166Z,28.15
2022-10-18T11:27:20.570Z,28.90
2022-10-18T11:29:59.852Z,29.14
2022-10-18T11:32:35.473Z,29.96
2022-10-18T11:35:20.653Z,30.71
2022-10-18T11:38:05.421Z,28.47
2022-10-18T11:40:43.504Z,25.92
2022-10-18T11:43:18.272Z,26.60
2022-10-18T11:45:55.655Z,26.96
2022-10-18T11:48:41.428Z,26.28
2022-10-18T11:51:16.387Z,25.97
2022-10-18T11:54:00.768Z,25.65
2022-10-18T11:56:38.241Z,24.94
2022-10-18T11:59:23.039Z,24.36
2022-10-18T12:02:03.998Z,24.05
2022-10-18T12:04:45.026Z,23.43
2022-10-18T12:07:28.941Z,23.62
2022-10-18T12:10:02.421Z,23.68
2022-10-18T12:12:33.830Z,23.55
2022-10-18T12:15:05.163Z,24.00
2022-10-18T12:17:46.184Z,24.43
2022-10-18T12:20:20.421Z,24.06
2022-10-18T12:22:56.101Z,24.54
2022-10-18T12:25:25.973Z,24.81
2022-10-18T12:30:40.094Z,25.05
2022-10-18T12:33:27.889Z,24.68
2022-10-18T12:36:07.122Z,25.20
2022-10-18T12:38:38.772Z,25.86
2022-10-18T12:41:07.861Z,24.95
2022-10-18T12:43:37.587Z,23.73
2022-10-18T12:46:12.231Z,22.46
2022-10-18T12:48:43.672Z,22.04
2022-10-18T12:51:16.084Z,22.00
2022-10-18T12:53:45.853Z,21.65
2022-10-18T12:56:42.683Z,21.26
2022-10-18T12:59:51.819Z,21.24
2022-10-18T13:02:28.917Z,20.82
2022-10-18T13:05:00.711Z,20.49
2022-10-18T13:07:43.284Z,20.63
2022-10-18T13:10:36.834Z,20.35
2022-10-18T13:13:40.626Z,20.00
2022-10-18T13:16:31.251Z,19.90
2022-10-18T13:19:03.247Z,20.05
2022-10-18T13:21:44.440Z,20.13
2022-10-18T13:24:24.194Z,20.37
2022-10-18T13:27:31.100Z,20.34
2022-10-18T13:30:12.629Z,20.13
2022-10-18T13:32:50.717Z,19.92
2022-10-18T13:35:44.983Z,20.13
2022-10-18T13:38:33.152Z,19.58
2022-10-18T13:41:03.030Z,19.60
2022-10-18T13:44:21.279Z,19.64
2022-10-18T13:50:31.758Z,19.83
2022-10-18T13:53:39.237Z,20.06
2022-10-18T13:56:24.129Z,19.49
2022-10-18T13:59:14.037Z,19.56
2022-10-18T14:01:54.518Z,19.90
2022-10-18T14:04:41.506Z,19.58
2022-10-18T14:07:12.647Z,19.74
2022-10-18T14:09:48.888Z,19.88
2022-10-18T14:12:27.391Z,19.85
2022-10-18T14:15:03.111Z,19.80
2022-10-18T14:17:37.064Z,19.56
2022-10-18T14:20:18.191Z,19.23
2022-10-18T14:22:50.624Z,19.27
2022-10-18T14:25:23.898Z,18.99
2022-10-18T14:28:11.389Z,19.01
2022-10-18T14:30:53.583Z,18.91
2022-10-18T14:33:34.501Z,19.00
2022-10-18T14:36:08.078Z,19.11
2022-10-18T14:38:47.652Z,19.00
2022-10-18T14:41:17.576Z,18.81
2022-10-18T14:43:46.503Z,18.50
2022-10-18T14:46:25.888Z,18.44
2022-10-18T14:48:55.071Z,18.50
2022-10-18T14:51:22.987Z,18.23
2022-10-18T14:53:52.571Z,18.25
2022-10-18T14:56:24.228Z,18.32
2022-10-18T14:58:53.294Z,18.34
2022-10-18T15:01:25.254Z,18.33
2022-10-18T15:03:57.181Z,18.77
2022-10-18T15:06:24.896Z,19.10
2022-10-18T15:08:57.239Z,18.91
2022-10-18T15:11:26.293Z,19.00
2022-10-18T15:13:56.175Z,19.18
2022-10-18T15:16:27.006Z,18.66
2022-10-18T15:19:03.083Z,18.64
2022-10-18T15:21:31.028Z,18.41
2022-10-18T15:24:21.769Z,18.19
2022-10-18T15:26:51.114Z,18.05
2022-10-18T15:29:20.517Z,18.12
2022-10-18T15:31:50.294Z,18.08
2022-10-18T15:34:21.368Z,18.07
2022-10-18T15:36:50.203Z,18.05
2022-10-18T15:39:20.242Z,18.20
2022-10-18T15:41:51.540Z,18.07
2022-10-18T15:44:25.534Z,17.86
2022-10-18T15:46:56.364Z,18.05
2022-10-18T15:50:00.474Z,17.80
2022-10-18T15:52:45.760Z,17.86
2022-10-18T15:55:56.498Z,17.86
2022-10-18T15:58:27.578Z,17.94
2022-10-18T16:00:58.571Z,17.75
2022-10-18T16:03:26.603Z,17.55
2022-10-18T16:06:00.514Z,17.59
2022-10-18T16:08:30.448Z,17.59
2022-10-18T16:10:58.687Z,17.68
2022-10-18T16:13:27.852Z,17.82
2022-10-18T16:15:56.591Z,18.01
2022-10-18T16:18:25.628Z,17.59
2022-10-18T16:20:53.900Z,17.53
2022-10-18T16:23:23.647Z,17.90
2022-10-18T16:25:52.078Z,17.64
2022-10-18T16:28:21.329Z,17.80
2022-10-18T16:30:55.396Z,17.82
2022-10-18T16:33:22.975Z,17.90
2022-10-18T16:35:50.844Z,17.46
2022-10-18T16:38:32.627Z,17.31
2022-10-18T16:41:02.363Z,17.43
2022-10-18T16:43:29.908Z,17.49
2022-10-18T16:45:58.766Z,17.27
2022-10-18T16:48:26.534Z,17.24
2022-10-18T16:50:55.697Z,17.15
2022-10-18T16:53:24.951Z,17.16
2022-10-18T16:55:54.739Z,17.35
2022-10-18T17:00:56.299Z,17.58
2022-10-18T17:03:25.611Z,17.77
2022-10-18T17:05:54.127Z,17.89
2022-10-18T17:08:23.829Z,17.86
2022-10-18T17:10:53.409Z,18.07
2022-10-18T17:13:21.912Z,18.54
2022-10-18T17:15:49.459Z,19.33
2022-10-18T17:18:21.649Z,19.72
2022-10-18T17:20:51.063Z,19.82
2022-10-18T17:23:18.739Z,19.17
2022-10-18T17:25:57.750Z,19.25
2022-10-18T17:28:34.053Z,19.02
2022-10-18T17:31:01.626Z,19.01
2022-10-18T17:33:29.125Z,18.61
2022-10-18T17:35:58.004Z,18.45
2022-10-18T17:38:25.597Z,18.65
2022-10-18T17:40:54.377Z,18.45
2022-10-18T17:43:21.912Z,17.91
2022-10-18T17:45:50.847Z,17.38
2022-10-18T17:48:18.690Z,17.15
2022-10-18T17:50:46.266Z,16.96
2022-10-18T17:53:16.564Z,17.03
2022-10-18T17:55:44.093Z,17.16
2022-10-18T17:58:11.594Z,16.96
2022-10-18T18:00:39.124Z,16.97
2022-10-18T18:03:06.686Z,16.90
2022-10-18T18:05:35.377Z,16.88
2022-10-18T18:08:04.073Z,16.75
2022-10-18T18:10:34.500Z,16.81
2022-10-18T18:13:02.197Z,17.01
2022-10-18T18:15:29.716Z,17.09
2022-10-18T18:17:58.208Z,17.08
2022-10-18T18:20:26.523Z,17.06
2022-10-18T18:22:54.200Z,17.12
2022-10-18T18:25:21.752Z,16.98
2022-10-18T18:27:50.617Z,17.21
2022-10-18T18:30:18.291Z,17.43
2022-10-18T18:32:45.918Z,17.25
2022-10-18T18:35:13.643Z,17.21
2022-10-18T18:37:41.155Z,17.07
2022-10-18T18:40:09.695Z,16.99
2022-10-18T18:42:37.207Z,17.29
2022-10-18T18:45:07.076Z,18.10
2022-10-18T18:47:35.488Z,18.05
2022-10-18T18:50:03.183Z,17.84
2022-10-18T18:52:31.064Z,18.02
2022-10-18T18:54:58.756Z,18.14
2022-10-18T18:57:26.347Z,18.33
2022-10-18T18:59:53.891Z,18.40
2022-10-18T19:02:22.773Z,18.61
2022-10-18T19:04:50.719Z,18.48
2022-10-18T19:07:18.302Z,18.38
2022-10-18T19:09:46.997Z,18.31
2022-10-18T19:12:16.455Z,18.26
2022-10-18T19:14:46.970Z,18.17
2022-10-18T19:17:14.518Z,18.05
2022-10-18T19:19:43.506Z,18.16
2022-10-18T19:22:11.105Z,18.20
2022-10-18T19:24:38.613Z,18.23
2022-10-18T19:27:09.598Z,18.18
2022-10-18T19:29:38.695Z,17.51
2022-10-18T19:32:08.435Z,17.32
2022-10-18T19:34:36.418Z,17.01
2022-10-18T19:37:05.311Z,16.85
2022-10-18T19:39:34.981Z,16.21
2022-10-18T19:42:04.755Z,16.00
2022-10-18T19:44:34.108Z,15.65
2022-10-18T19:47:01.659Z,15.82
2022-10-18T19:49:29.676Z,15.89
2022-10-18T19:51:57.626Z,16.05
2022-10-18T19:54:27.101Z,16.13
2022-10-18T19:56:54.840Z,16.04
2022-10-18T19:59:23.140Z,16.03
2022-10-18T20:01:50.730Z,16.11
2022-10-18T20:04:18.363Z,16.35
2022-10-18T20:06:46.358Z,16.53
2022-10-18T20:09:19.338Z,16.80
2022-10-18T20:11:49.693Z,17.28
2022-10-18T20:14:17.263Z,17.15
2022-10-18T20:16:44.892Z,16.78
2022-10-18T20:19:12.465Z,16.78
2022-10-18T20:21:40.190Z,16.97
2022-10-18T20:24:09.259Z,16.79
2022-10-18T20:26:36.995Z,16.55
2022-10-18T20:29:07.433Z,16.23
2022-10-18T20:31:38.865Z,16.10
2022-10-18T20:34:08.577Z,15.69
2022-10-18T20:36:36.600Z,15.54
2022-10-18T20:39:05.183Z,15.40
2022-10-18T20:41:34.658Z,15.70
2022-10-18T20:44:04.016Z,15.79
2022-10-18T20:46:34.518Z,16.19
2022-10-18T20:49:02.139Z,16.80
2022-10-18T20:51:29.796Z,16.69
2022-10-18T20:53:57.674Z,16.62
2022-10-18T20:56:27.183Z,16.84
2022-10-18T20:58:56.609Z,16.96
2022-10-18T21:01:26.041Z,17.10
2022-10-18T21:03:57.393Z,17.02
2022-10-18T21:06:26.493Z,16.95
2022-10-18T21:08:55.481Z,16.83
2022-10-18T21:11:23.902Z,16.50
2022-10-18T21:13:52.396Z,16.14
2022-10-18T21:16:20.441Z,15.83
2022-10-18T21:18:48.583Z,15.70
2022-10-18T21:21:19.838Z,15.30
2022-10-18T21:23:48.125Z,15.12
2022-10-18T21:26:17.007Z,14.99
2022-10-18T21:28:44.877Z,15.07
2022-10-18T21:31:14.530Z,14.99
2022-10-18T21:33:42.364Z,15.11
2022-10-18T21:36:10.075Z,15.32
2022-10-18T21:38:39.440Z,15.20
2022-10-18T21:41:11.476Z,15.05
2022-10-18T21:43:41.735Z,15.07
2022-10-18T21:46:10.902Z,15.10
2022-10-18T21:48:39.287Z,15.21
2022-10-18T21:51:08.940Z,15.38
2022-10-18T21:53:37.145Z,15.53
2022-10-18T21:56:08.395Z,15.52
2022-10-18T21:58:36.376Z,15.49
2022-10-18T22:01:08.406Z,15.86
2022-10-18T22:03:36.003Z,16.08
2022-10-18T22:06:07.537Z,16.47
2022-10-18T22:08:35.840Z,16.60
2022-10-18T22:11:04.185Z,16.63
2022-10-18T22:13:33.142Z,16.52
2022-10-18T22:16:02.352Z,16.57
2022-10-18T22:18:30.652Z,16.74
2022-10-18T22:21:00.185Z,16.75
2022-10-18T22:23:32.313Z,16.59
2022-10-18T22:26:03.658Z,16.35
2022-10-18T22:28:31.235Z,16.39
2022-10-18T22:31:00.125Z,16.39
2022-10-18T22:33:28.109Z,16.42
2022-10-18T22:35:55.646Z,16.24
2022-10-18T22:38:23.191Z,16.28
2022-10-18T22:40:51.741Z,16.40
2022-10-18T22:43:19.692Z,16.37
2022-10-18T22:45:47.210Z,16.26
2022-10-18T22:48:16.073Z,16.10
2022-10-18T22:50:43.566Z,15.89
2022-10-18T22:53:11.082Z,15.88
2022-10-18T22:55:38.609Z,15.85
2022-10-18T22:58:06.106Z,15.79
2022-10-18T23:00:33.681Z,15.78
2022-10-18T23:03:01.313Z,15.81
2022-10-18T23:05:30.176Z,15.75
2022-10-18T23:07:57.663Z,15.75
2022-10-18T23:10:25.166Z,15.58
2022-10-18T23:12:52.641Z,15.47
2022-10-18T23:15:20.151Z,15.45
2022-10-18T23:17:49.869Z,15.31
2022-10-18T23:20:17.505Z,15.32
2022-10-18T23:22:46.381Z,15.30
2022-10-18T23:25:14.044Z,15.36
2022-10-18T23:30:14.222Z,15.18
2022-10-18T23:32:41.725Z,15.00
2022-10-18T23:35:10.344Z,14.97
2022-10-18T23:37:37.987Z,15.09
2022-10-18T23:40:08.411Z,14.90
2022-10-18T23:42:35.966Z,14.55
2022-10-18T23:45:03.549Z,14.63
2022-10-18T23:47:31.357Z,14.46
2022-10-18T23:49:59.094Z,14.42
2022-10-18T23:52:26.604Z,14.58
2022-10-18T23:54:54.114Z,14.62
2022-10-18T23:57:22.972Z,14.63
2022-10-18T23:59:50.467Z,14.36
